sensor_id;sensor_type;location;lat;lon;timestamp;P1;durP1;ratioP1;P2;durP2;ratioP2
956;SDS011;465;48.802;9.224;2022-07-06T00:02:04;3.10;;;2.90;;
956;SDS011;465;48.802;9.224;2022-07-06T00:04:31;7.60;;;3.20;;
956;SDS011;465;48.802;9.224;2022-07-06T00:06:57;5.10;;;3.17;;
956;SDS011;465;48.802;9.224;2022-07-06T00:09:24;7.13;;;2.60;;
956;SDS011;465;48.802;9.224;2022-07-06T00:11:51;5.43;;;3.10;;
956;SDS011;465;48.802;9.224;2022-07-06T00:14:19;4.70;;;3.30;;
956;SDS011;465;48.802;9.224;2022-07-06T00:16:45;2.77;;;2.47;;
956;SDS011;465;48.802;9.224;2022-07-06T00:19:12;4.00;;;3.40;;
956;SDS011;465;48.802;9.224;2022-07-06T00:21:39;3.37;;;3.00;;
956;SDS011;465;48.802;9.224;2022-07-06T00:24:06;4.57;;;3.57;;
956;SDS011;465;48.802;9.224;2022-07-06T00:26:32;3.93;;;3.53;;
956;SDS011;465;48.802;9.224;2022-07-06T00:28:59;3.13;;;2.60;;
956;SDS011;465;48.802;9.224;2022-07-06T00:31:27;5.00;;;2.83;;
956;SDS011;465;48.802;9.224;2022-07-06T00:33:54;6.73;;;3.47;;
956;SDS011;465;48.802;9.224;2022-07-06T00:36:20;3.50;;;2.90;;
956;SDS011;465;48.802;9.224;2022-07-06T00:38:47;4.40;;;3.30;;
956;SDS011;465;48.802;9.224;2022-07-06T00:41:13;3.70;;;3.40;;
956;SDS011;465;48.802;9.224;2022-07-06T00:43:47;4.20;;;3.33;;
956;SDS011;465;48.802;9.224;2022-07-06T00:46:14;5.60;;;3.57;;
956;SDS011;465;48.802;9.224;2022-07-06T00:48:42;3.63;;;3.30;;
956;SDS011;465;48.802;9.224;2022-07-06T00:51:09;5.00;;;3.00;;
956;SDS011;465;48.802;9.224;2022-07-06T00:53:35;5.17;;;3.80;;
956;SDS011;465;48.802;9.224;2022-07-06T00:56:03;5.37;;;3.13;;
956;SDS011;465;48.802;9.224;2022-07-06T00:58:30;3.80;;;3.00;;
956;SDS011;465;48.802;9.224;2022-07-06T01:00:57;5.00;;;3.97;;
956;SDS011;465;48.802;9.224;2022-07-06T01:03:23;5.30;;;3.53;;
956;SDS011;465;48.802;9.224;2022-07-06T01:05:51;4.00;;;3.60;;
956;SDS011;465;48.802;9.224;2022-07-06T01:08:18;5.50;;;3.43;;
956;SDS011;465;48.802;9.224;2022-07-06T01:10:45;6.73;;;4.10;;
956;SDS011;465;48.802;9.224;2022-07-06T01:13:12;4.63;;;3.63;;
956;SDS011;465;48.802;9.224;2022-07-06T01:15:39;5.23;;;4.50;;
956;SDS011;465;48.802;9.224;2022-07-06T01:18:06;5.60;;;3.50;;
956;SDS011;465;48.802;9.224;2022-07-06T01:20:36;7.77;;;3.23;;
956;SDS011;465;48.802;9.224;2022-07-06T01:23:03;4.20;;;3.43;;
956;SDS011;465;48.802;9.224;2022-07-06T01:25:30;4.67;;;3.50;;
956;SDS011;465;48.802;9.224;2022-07-06T01:27:57;5.17;;;3.33;;
956;SDS011;465;48.802;9.224;2022-07-06T01:30:24;3.27;;;2.87;;
956;SDS011;465;48.802;9.224;2022-07-06T01:32:50;4.30;;;3.00;;
956;SDS011;465;48.802;9.224;2022-07-06T01:35:17;3.60;;;3.30;;
956;SDS011;465;48.802;9.224;2022-07-06T01:37:46;6.13;;;3.50;;
956;SDS011;465;48.802;9.224;2022-07-06T01:40:12;2.60;;;2.40;;
956;SDS011;465;48.802;9.224;2022-07-06T01:42:39;8.07;;;3.20;;
956;SDS011;465;48.802;9.224;2022-07-06T01:45:06;3.90;;;3.00;;
956;SDS011;465;48.802;9.224;2022-07-06T01:47:35;3.00;;;2.80;;
956;SDS011;465;48.802;9.224;2022-07-06T01:50:03;2.50;;;2.30;;
956;SDS011;465;48.802;9.224;2022-07-06T01:52:32;5.23;;;3.10;;
956;SDS011;465;48.802;9.224;2022-07-06T01:55:00;7.10;;;3.60;;
956;SDS011;465;48.802;9.224;2022-07-06T01:57:26;6.20;;;3.53;;
956;SDS011;465;48.802;9.224;2022-07-06T01:59:53;6.43;;;3.27;;
956;SDS011;465;48.802;9.224;2022-07-06T02:02:19;3.77;;;2.90;;
956;SDS011;465;48.802;9.224;2022-07-06T02:04:46;6.83;;;2.93;;
956;SDS011;465;48.802;9.224;2022-07-06T02:07:13;3.40;;;2.93;;
956;SDS011;465;48.802;9.224;2022-07-06T02:09:40;4.93;;;3.07;;
956;SDS011;465;48.802;9.224;2022-07-06T02:12:08;5.00;;;2.43;;
956;SDS011;465;48.802;9.224;2022-07-06T02:14:34;4.80;;;3.30;;
956;SDS011;465;48.802;9.224;2022-07-06T02:17:01;4.00;;;3.60;;
956;SDS011;465;48.802;9.224;2022-07-06T02:19:28;3.10;;;2.80;;
956;SDS011;465;48.802;9.224;2022-07-06T02:21:55;5.50;;;3.80;;
956;SDS011;465;48.802;9.224;2022-07-06T02:24:21;4.63;;;3.23;;
956;SDS011;465;48.802;9.224;2022-07-06T02:26:48;5.33;;;2.70;;
956;SDS011;465;48.802;9.224;2022-07-06T02:29:16;3.60;;;2.60;;
956;SDS011;465;48.802;9.224;2022-07-06T02:31:43;4.73;;;3.20;;
956;SDS011;465;48.802;9.224;2022-07-06T02:34:09;3.37;;;2.60;;
956;SDS011;465;48.802;9.224;2022-07-06T02:36:36;3.60;;;3.07;;
956;SDS011;465;48.802;9.224;2022-07-06T02:39:02;5.80;;;3.00;;
956;SDS011;465;48.802;9.224;2022-07-06T02:41:29;3.07;;;2.77;;
956;SDS011;465;48.802;9.224;2022-07-06T02:43:56;5.00;;;2.93;;
956;SDS011;465;48.802;9.224;2022-07-06T02:46:24;6.30;;;3.80;;
956;SDS011;465;48.802;9.224;2022-07-06T02:48:50;6.33;;;3.10;;
956;SDS011;465;48.802;9.224;2022-07-06T02:51:17;3.33;;;3.03;;
956;SDS011;465;48.802;9.224;2022-07-06T02:53:44;5.93;;;3.23;;
956;SDS011;465;48.802;9.224;2022-07-06T02:56:10;4.70;;;3.50;;
956;SDS011;465;48.802;9.224;2022-07-06T02:58:37;3.10;;;2.80;;
956;SDS011;465;48.802;9.224;2022-07-06T03:01:04;3.70;;;3.00;;
956;SDS011;465;48.802;9.224;2022-07-06T03:03:32;5.97;;;3.30;;
956;SDS011;465;48.802;9.224;2022-07-06T03:05:58;5.63;;;3.10;;
956;SDS011;465;48.802;9.224;2022-07-06T03:08:25;4.00;;;3.60;;
956;SDS011;465;48.802;9.224;2022-07-06T03:10:52;4.40;;;2.90;;
956;SDS011;465;48.802;9.224;2022-07-06T03:13:18;4.33;;;3.93;;
956;SDS011;465;48.802;9.224;2022-07-06T03:15:45;3.60;;;2.90;;
956;SDS011;465;48.802;9.224;2022-07-06T03:18:12;10.07;;;3.17;;
956;SDS011;465;48.802;9.224;2022-07-06T03:20:40;5.80;;;3.73;;
956;SDS011;465;48.802;9.224;2022-07-06T03:23:06;3.90;;;2.70;;
956;SDS011;465;48.802;9.224;2022-07-06T03:25:33;3.97;;;3.57;;
956;SDS011;465;48.802;9.224;2022-07-06T03:28:00;4.80;;;3.37;;
956;SDS011;465;48.802;9.224;2022-07-06T03:30:27;6.40;;;2.90;;
956;SDS011;465;48.802;9.224;2022-07-06T03:32:54;3.63;;;3.30;;
956;SDS011;465;48.802;9.224;2022-07-06T03:35:20;3.80;;;3.23;;
956;SDS011;465;48.802;9.224;2022-07-06T03:37:48;7.50;;;4.00;;
956;SDS011;465;48.802;9.224;2022-07-06T03:40:15;4.80;;;3.63;;
956;SDS011;465;48.802;9.224;2022-07-06T03:42:41;5.10;;;3.70;;
956;SDS011;465;48.802;9.224;2022-07-06T03:45:09;4.40;;;3.63;;
956;SDS011;465;48.802;9.224;2022-07-06T03:47:36;5.60;;;3.60;;
956;SDS011;465;48.802;9.224;2022-07-06T03:50:03;4.17;;;3.80;;
956;SDS011;465;48.802;9.224;2022-07-06T03:52:30;5.50;;;3.57;;
956;SDS011;465;48.802;9.224;2022-07-06T03:54:58;5.13;;;3.80;;
956;SDS011;465;48.802;9.224;2022-07-06T03:57:24;7.03;;;3.70;;
956;SDS011;465;48.802;9.224;2022-07-06T03:59:51;5.57;;;3.90;;
956;SDS011;465;48.802;9.224;2022-07-06T04:02:18;12.77;;;4.20;;
956;SDS011;465;48.802;9.224;2022-07-06T04:04:45;7.33;;;4.20;;
956;SDS011;465;48.802;9.224;2022-07-06T04:07:11;5.37;;;3.97;;
956;SDS011;465;48.802;9.224;2022-07-06T04:09:38;4.67;;;4.27;;
956;SDS011;465;48.802;9.224;2022-07-06T04:12:07;5.17;;;4.03;;
956;SDS011;465;48.802;9.224;2022-07-06T04:14:33;4.40;;;3.47;;
956;SDS011;465;48.802;9.224;2022-07-06T04:17:01;4.57;;;4.07;;
956;SDS011;465;48.802;9.224;2022-07-06T04:19:48;4.40;;;4.00;;
956;SDS011;465;48.802;9.224;2022-07-06T04:22:15;4.97;;;4.57;;
956;SDS011;465;48.802;9.224;2022-07-06T04:24:41;4.40;;;4.00;;
956;SDS011;465;48.802;9.224;2022-07-06T04:27:10;5.80;;;4.00;;
956;SDS011;465;48.802;9.224;2022-07-06T04:29:36;5.50;;;4.30;;
956;SDS011;465;48.802;9.224;2022-07-06T04:32:03;4.57;;;4.17;;
956;SDS011;465;48.802;9.224;2022-07-06T04:34:30;4.70;;;4.30;;
956;SDS011;465;48.802;9.224;2022-07-06T04:36:57;5.00;;;4.17;;
956;SDS011;465;48.802;9.224;2022-07-06T04:39:24;5.13;;;3.97;;
956;SDS011;465;48.802;9.224;2022-07-06T04:41:51;4.73;;;4.33;;
956;SDS011;465;48.802;9.224;2022-07-06T04:44:19;7.53;;;4.57;;
956;SDS011;465;48.802;9.224;2022-07-06T04:46:45;7.10;;;5.33;;
956;SDS011;465;48.802;9.224;2022-07-06T04:49:12;6.40;;;4.37;;
956;SDS011;465;48.802;9.224;2022-07-06T04:51:39;6.23;;;5.50;;
956;SDS011;465;48.802;9.224;2022-07-06T04:54:05;5.33;;;4.43;;
956;SDS011;465;48.802;9.224;2022-07-06T04:56:32;5.13;;;4.63;;
956;SDS011;465;48.802;9.224;2022-07-06T04:58:59;6.03;;;5.43;;
956;SDS011;465;48.802;9.224;2022-07-06T05:01:27;4.50;;;4.10;;
956;SDS011;465;48.802;9.224;2022-07-06T05:03:53;8.00;;;5.20;;
956;SDS011;465;48.802;9.224;2022-07-06T05:06:20;6.30;;;5.47;;
956;SDS011;465;48.802;9.224;2022-07-06T05:08:47;4.87;;;4.37;;
956;SDS011;465;48.802;9.224;2022-07-06T05:11:13;5.17;;;4.77;;
956;SDS011;465;48.802;9.224;2022-07-06T05:13:40;5.10;;;4.70;;
956;SDS011;465;48.802;9.224;2022-07-06T05:16:07;5.83;;;4.70;;
956;SDS011;465;48.802;9.224;2022-07-06T05:18:38;9.30;;;4.60;;
956;SDS011;465;48.802;9.224;2022-07-06T05:21:05;8.13;;;5.13;;
956;SDS011;465;48.802;9.224;2022-07-06T05:23:32;6.97;;;5.53;;
956;SDS011;465;48.802;9.224;2022-07-06T05:25:58;6.27;;;4.60;;
956;SDS011;465;48.802;9.224;2022-07-06T05:28:25;4.53;;;4.10;;
956;SDS011;465;48.802;9.224;2022-07-06T05:30:52;6.00;;;3.97;;
956;SDS011;465;48.802;9.224;2022-07-06T05:33:18;6.53;;;4.30;;
956;SDS011;465;48.802;9.224;2022-07-06T05:35:46;4.27;;;3.90;;
956;SDS011;465;48.802;9.224;2022-07-06T05:38:13;5.20;;;4.47;;
956;SDS011;465;48.802;9.224;2022-07-06T05:40:40;4.67;;;4.27;;
956;SDS011;465;48.802;9.224;2022-07-06T05:43:07;5.30;;;4.80;;
956;SDS011;465;48.802;9.224;2022-07-06T05:45:33;4.93;;;3.90;;
956;SDS011;465;48.802;9.224;2022-07-06T05:48:00;4.80;;;4.30;;
956;SDS011;465;48.802;9.224;2022-07-06T05:50:44;6.27;;;4.03;;
956;SDS011;465;48.802;9.224;2022-07-06T05:53:13;4.40;;;4.07;;
956;SDS011;465;48.802;9.224;2022-07-06T05:55:39;3.30;;;3.00;;
956;SDS011;465;48.802;9.224;2022-07-06T05:58:06;4.93;;;3.97;;
956;SDS011;465;48.802;9.224;2022-07-06T06:00:33;4.93;;;3.77;;
956;SDS011;465;48.802;9.224;2022-07-06T06:03:00;4.27;;;3.87;;
956;SDS011;465;48.802;9.224;2022-07-06T06:05:26;4.90;;;3.50;;
956;SDS011;465;48.802;9.224;2022-07-06T06:07:54;5.37;;;3.57;;
956;SDS011;465;48.802;9.224;2022-07-06T06:10:21;4.23;;;3.50;;
956;SDS011;465;48.802;9.224;2022-07-06T06:12:48;5.10;;;3.40;;
956;SDS011;465;48.802;9.224;2022-07-06T06:15:16;3.90;;;3.50;;
956;SDS011;465;48.802;9.224;2022-07-06T06:17:43;6.30;;;3.43;;
956;SDS011;465;48.802;9.224;2022-07-06T06:20:11;5.47;;;4.77;;
956;SDS011;465;48.802;9.224;2022-07-06T06:22:46;5.50;;;3.70;;
956;SDS011;465;48.802;9.224;2022-07-06T06:25:16;4.00;;;3.60;;
956;SDS011;465;48.802;9.224;2022-07-06T06:27:43;10.43;;;3.60;;
956;SDS011;465;48.802;9.224;2022-07-06T06:30:10;4.90;;;3.63;;
956;SDS011;465;48.802;9.224;2022-07-06T06:32:38;6.50;;;3.23;;
956;SDS011;465;48.802;9.224;2022-07-06T06:35:05;4.00;;;3.60;;
956;SDS011;465;48.802;9.224;2022-07-06T06:37:32;3.80;;;3.20;;
956;SDS011;465;48.802;9.224;2022-07-06T06:40:00;4.77;;;3.20;;
956;SDS011;465;48.802;9.224;2022-07-06T06:42:28;5.50;;;4.10;;
956;SDS011;465;48.802;9.224;2022-07-06T06:44:54;7.17;;;4.03;;
956;SDS011;465;48.802;9.224;2022-07-06T06:47:21;4.37;;;3.30;;
956;SDS011;465;48.802;9.224;2022-07-06T06:49:48;7.77;;;3.57;;
956;SDS011;465;48.802;9.224;2022-07-06T06:52:15;4.50;;;2.97;;
956;SDS011;465;48.802;9.224;2022-07-06T06:54:41;3.37;;;2.87;;
956;SDS011;465;48.802;9.224;2022-07-06T06:57:08;5.43;;;3.60;;
956;SDS011;465;48.802;9.224;2022-07-06T06:59:36;6.77;;;3.50;;
956;SDS011;465;48.802;9.224;2022-07-06T07:02:03;4.00;;;3.20;;
956;SDS011;465;48.802;9.224;2022-07-06T07:04:29;3.30;;;2.60;;
956;SDS011;465;48.802;9.224;2022-07-06T07:06:56;5.00;;;3.10;;
956;SDS011;465;48.802;9.224;2022-07-06T07:09:23;3.47;;;3.10;;
956;SDS011;465;48.802;9.224;2022-07-06T07:11:50;4.20;;;3.50;;
956;SDS011;465;48.802;9.224;2022-07-06T07:14:16;3.97;;;3.03;;
956;SDS011;465;48.802;9.224;2022-07-06T07:16:44;5.70;;;3.37;;
956;SDS011;465;48.802;9.224;2022-07-06T07:19:11;7.97;;;3.53;;
956;SDS011;465;48.802;9.224;2022-07-06T07:21:38;5.00;;;3.03;;
956;SDS011;465;48.802;9.224;2022-07-06T07:24:05;4.23;;;3.50;;
956;SDS011;465;48.802;9.224;2022-07-06T07:26:32;4.80;;;3.03;;
956;SDS011;465;48.802;9.224;2022-07-06T07:28:59;8.50;;;3.43;;
956;SDS011;465;48.802;9.224;2022-07-06T07:31:26;6.93;;;3.60;;
956;SDS011;465;48.802;9.224;2022-07-06T07:33:54;4.70;;;3.27;;
956;SDS011;465;48.802;9.224;2022-07-06T07:36:22;3.83;;;2.83;;
956;SDS011;465;48.802;9.224;2022-07-06T07:38:49;3.70;;;3.40;;
956;SDS011;465;48.802;9.224;2022-07-06T07:41:16;4.10;;;3.03;;
956;SDS011;465;48.802;9.224;2022-07-06T07:43:43;3.63;;;3.07;;
956;SDS011;465;48.802;9.224;2022-07-06T07:46:10;5.30;;;3.00;;
956;SDS011;465;48.802;9.224;2022-07-06T07:48:37;6.03;;;2.93;;
956;SDS011;465;48.802;9.224;2022-07-06T07:51:06;3.00;;;2.70;;
956;SDS011;465;48.802;9.224;2022-07-06T07:53:33;4.40;;;3.40;;
956;SDS011;465;48.802;9.224;2022-07-06T07:56:01;3.27;;;2.97;;
956;SDS011;465;48.802;9.224;2022-07-06T07:58:28;3.53;;;3.20;;
956;SDS011;465;48.802;9.224;2022-07-06T08:00:54;8.20;;;2.90;;
956;SDS011;465;48.802;9.224;2022-07-06T08:03:21;4.27;;;3.43;;
956;SDS011;465;48.802;9.224;2022-07-06T08:05:48;3.30;;;2.97;;
956;SDS011;465;48.802;9.224;2022-07-06T08:08:17;4.50;;;3.23;;
956;SDS011;465;48.802;9.224;2022-07-06T08:10:43;3.50;;;3.30;;
956;SDS011;465;48.802;9.224;2022-07-06T08:13:10;3.13;;;2.40;;
956;SDS011;465;48.802;9.224;2022-07-06T08:15:39;6.43;;;3.40;;
956;SDS011;465;48.802;9.224;2022-07-06T08:18:06;3.90;;;2.93;;
956;SDS011;465;48.802;9.224;2022-07-06T08:20:34;2.97;;;2.67;;
956;SDS011;465;48.802;9.224;2022-07-06T08:23:00;4.20;;;3.23;;
956;SDS011;465;48.802;9.224;2022-07-06T08:25:31;6.80;;;3.60;;
956;SDS011;465;48.802;9.224;2022-07-06T08:27:58;3.20;;;2.90;;
956;SDS011;465;48.802;9.224;2022-07-06T08:30:25;2.50;;;2.30;;
956;SDS011;465;48.802;9.224;2022-07-06T08:32:51;4.60;;;2.83;;
956;SDS011;465;48.802;9.224;2022-07-06T08:35:18;3.53;;;3.23;;
956;SDS011;465;48.802;9.224;2022-07-06T08:37:45;4.13;;;3.23;;
956;SDS011;465;48.802;9.224;2022-07-06T08:40:12;3.37;;;3.07;;
956;SDS011;465;48.802;9.224;2022-07-06T08:42:40;5.20;;;3.40;;
956;SDS011;465;48.802;9.224;2022-07-06T08:45:09;6.93;;;3.30;;
956;SDS011;465;48.802;9.224;2022-07-06T08:47:36;4.10;;;3.20;;
956;SDS011;465;48.802;9.224;2022-07-06T08:50:03;6.73;;;3.40;;
956;SDS011;465;48.802;9.224;2022-07-06T08:52:31;3.80;;;2.60;;
956;SDS011;465;48.802;9.224;2022-07-06T08:54:58;7.20;;;3.40;;
956;SDS011;465;48.802;9.224;2022-07-06T08:57:25;3.70;;;3.13;;
956;SDS011;465;48.802;9.224;2022-07-06T08:59:55;3.67;;;3.33;;
956;SDS011;465;48.802;9.224;2022-07-06T09:02:23;5.13;;;3.47;;
956;SDS011;465;48.802;9.224;2022-07-06T09:04:51;4.00;;;2.80;;
956;SDS011;465;48.802;9.224;2022-07-06T09:07:21;4.07;;;2.57;;
956;SDS011;465;48.802;9.224;2022-07-06T09:09:48;3.40;;;2.90;;
956;SDS011;465;48.802;9.224;2022-07-06T09:12:16;3.20;;;2.70;;
956;SDS011;465;48.802;9.224;2022-07-06T09:14:42;4.03;;;2.97;;
956;SDS011;465;48.802;9.224;2022-07-06T09:17:11;3.40;;;2.90;;
956;SDS011;465;48.802;9.224;2022-07-06T09:19:38;5.20;;;3.60;;
956;SDS011;465;48.802;9.224;2022-07-06T09:22:05;3.80;;;3.50;;
956;SDS011;465;48.802;9.224;2022-07-06T09:24:32;3.20;;;2.90;;
956;SDS011;465;48.802;9.224;2022-07-06T09:27:04;4.90;;;3.17;;
956;SDS011;465;48.802;9.224;2022-07-06T09:29:31;3.77;;;2.87;;
956;SDS011;465;48.802;9.224;2022-07-06T09:31:58;3.80;;;2.90;;
956;SDS011;465;48.802;9.224;2022-07-06T09:34:32;3.37;;;3.07;;
956;SDS011;465;48.802;9.224;2022-07-06T09:37:07;5.43;;;3.30;;
956;SDS011;465;48.802;9.224;2022-07-06T09:39:33;4.10;;;3.63;;
956;SDS011;465;48.802;9.224;2022-07-06T09:42:01;4.50;;;2.90;;
956;SDS011;465;48.802;9.224;2022-07-06T09:44:30;4.47;;;3.00;;
956;SDS011;465;48.802;9.224;2022-07-06T09:46:58;5.00;;;2.63;;
956;SDS011;465;48.802;9.224;2022-07-06T09:49:25;4.60;;;3.17;;
956;SDS011;465;48.802;9.224;2022-07-06T09:51:54;2.97;;;2.77;;
956;SDS011;465;48.802;9.224;2022-07-06T09:54:22;6.73;;;2.93;;
956;SDS011;465;48.802;9.224;2022-07-06T09:56:50;4.23;;;3.10;;
956;SDS011;465;48.802;9.224;2022-07-06T09:59:18;5.27;;;2.80;;
956;SDS011;465;48.802;9.224;2022-07-06T10:01:46;5.90;;;2.90;;
956;SDS011;465;48.802;9.224;2022-07-06T10:04:13;3.53;;;2.87;;
956;SDS011;465;48.802;9.224;2022-07-06T10:06:43;3.53;;;3.17;;
956;SDS011;465;48.802;9.224;2022-07-06T10:09:13;6.33;;;3.03;;
956;SDS011;465;48.802;9.224;2022-07-06T10:11:42;3.57;;;2.80;;
956;SDS011;465;48.802;9.224;2022-07-06T10:14:13;3.87;;;3.00;;
956;SDS011;465;48.802;9.224;2022-07-06T10:16:43;4.87;;;2.80;;
956;SDS011;465;48.802;9.224;2022-07-06T10:19:12;3.90;;;2.57;;
956;SDS011;465;48.802;9.224;2022-07-06T10:21:40;2.70;;;2.50;;
956;SDS011;465;48.802;9.224;2022-07-06T10:24:08;3.67;;;2.83;;
956;SDS011;465;48.802;9.224;2022-07-06T10:26:37;7.10;;;3.50;;
956;SDS011;465;48.802;9.224;2022-07-06T10:29:06;2.80;;;2.50;;
956;SDS011;465;48.802;9.224;2022-07-06T10:31:34;7.20;;;3.00;;
956;SDS011;465;48.802;9.224;2022-07-06T10:34:04;5.30;;;2.80;;
956;SDS011;465;48.802;9.224;2022-07-06T10:36:36;3.90;;;2.70;;
956;SDS011;465;48.802;9.224;2022-07-06T10:39:04;4.10;;;3.60;;
956;SDS011;465;48.802;9.224;2022-07-06T10:41:52;4.30;;;2.80;;
956;SDS011;465;48.802;9.224;2022-07-06T10:44:19;3.53;;;3.00;;
956;SDS011;465;48.802;9.224;2022-07-06T10:46:51;3.60;;;3.30;;
956;SDS011;465;48.802;9.224;2022-07-06T10:49:20;4.83;;;3.70;;
956;SDS011;465;48.802;9.224;2022-07-06T10:51:47;5.43;;;3.57;;
956;SDS011;465;48.802;9.224;2022-07-06T10:54:15;3.80;;;3.23;;
956;SDS011;465;48.802;9.224;2022-07-06T10:56:44;3.90;;;3.10;;
956;SDS011;465;48.802;9.224;2022-07-06T10:59:14;4.20;;;2.87;;
956;SDS011;465;48.802;9.224;2022-07-06T11:02:10;3.77;;;2.93;;
956;SDS011;465;48.802;9.224;2022-07-06T11:04:39;5.33;;;3.30;;
956;SDS011;465;48.802;9.224;2022-07-06T11:07:08;3.57;;;2.87;;
956;SDS011;465;48.802;9.224;2022-07-06T11:09:35;4.17;;;2.63;;
956;SDS011;465;48.802;9.224;2022-07-06T11:12:11;4.03;;;2.60;;
956;SDS011;465;48.802;9.224;2022-07-06T11:14:40;3.57;;;2.80;;
956;SDS011;465;48.802;9.224;2022-07-06T11:17:06;4.63;;;2.83;;
956;SDS011;465;48.802;9.224;2022-07-06T11:19:36;2.90;;;2.50;;
956;SDS011;465;48.802;9.224;2022-07-06T11:22:05;5.03;;;3.20;;
956;SDS011;465;48.802;9.224;2022-07-06T11:24:34;6.37;;;2.77;;
956;SDS011;465;48.802;9.224;2022-07-06T11:27:02;3.63;;;2.73;;
956;SDS011;465;48.802;9.224;2022-07-06T11:29:32;6.57;;;2.60;;
956;SDS011;465;48.802;9.224;2022-07-06T11:32:03;3.80;;;3.20;;
956;SDS011;465;48.802;9.224;2022-07-06T11:34:31;3.77;;;3.03;;
956;SDS011;465;48.802;9.224;2022-07-06T11:37:00;3.40;;;3.10;;
956;SDS011;465;48.802;9.224;2022-07-06T11:39:28;3.50;;;2.67;;
956;SDS011;465;48.802;9.224;2022-07-06T11:41:56;4.10;;;3.77;;
956;SDS011;465;48.802;9.224;2022-07-06T11:44:23;3.77;;;3.20;;
956;SDS011;465;48.802;9.224;2022-07-06T11:46:51;3.53;;;3.20;;
956;SDS011;465;48.802;9.224;2022-07-06T11:49:21;4.50;;;3.27;;
956;SDS011;465;48.802;9.224;2022-07-06T11:51:47;6.33;;;3.13;;
956;SDS011;465;48.802;9.224;2022-07-06T11:54:15;6.63;;;2.97;;
956;SDS011;465;48.802;9.224;2022-07-06T11:56:46;3.53;;;2.97;;
956;SDS011;465;48.802;9.224;2022-07-06T11:59:14;4.13;;;3.07;;
956;SDS011;465;48.802;9.224;2022-07-06T12:01:42;5.40;;;2.80;;
956;SDS011;465;48.802;9.224;2022-07-06T12:04:09;5.70;;;2.60;;
956;SDS011;465;48.802;9.224;2022-07-06T12:06:37;4.53;;;3.30;;
956;SDS011;465;48.802;9.224;2022-07-06T12:09:04;6.20;;;3.40;;
956;SDS011;465;48.802;9.224;2022-07-06T12:11:32;6.57;;;3.63;;
956;SDS011;465;48.802;9.224;2022-07-06T12:14:00;4.70;;;3.13;;
956;SDS011;465;48.802;9.224;2022-07-06T12:16:31;3.70;;;3.10;;
956;SDS011;465;48.802;9.224;2022-07-06T12:18:59;6.90;;;3.57;;
956;SDS011;465;48.802;9.224;2022-07-06T12:21:27;3.63;;;3.20;;
956;SDS011;465;48.802;9.224;2022-07-06T12:23:55;6.70;;;3.70;;
956;SDS011;465;48.802;9.224;2022-07-06T12:26:23;5.00;;;3.40;;
956;SDS011;465;48.802;9.224;2022-07-06T12:29:01;5.87;;;3.40;;
956;SDS011;465;48.802;9.224;2022-07-06T12:31:31;3.60;;;2.87;;
956;SDS011;465;48.802;9.224;2022-07-06T12:33:58;4.50;;;3.13;;
956;SDS011;465;48.802;9.224;2022-07-06T12:36:25;5.43;;;3.73;;
956;SDS011;465;48.802;9.224;2022-07-06T12:38:52;4.50;;;3.20;;
956;SDS011;465;48.802;9.224;2022-07-06T12:41:29;3.30;;;3.00;;
956;SDS011;465;48.802;9.224;2022-07-06T12:44:05;4.23;;;3.83;;
956;SDS011;465;48.802;9.224;2022-07-06T12:46:33;5.57;;;3.33;;
956;SDS011;465;48.802;9.224;2022-07-06T12:49:03;5.50;;;3.80;;
956;SDS011;465;48.802;9.224;2022-07-06T12:51:48;5.00;;;2.67;;
956;SDS011;465;48.802;9.224;2022-07-06T12:54:16;6.33;;;3.30;;
956;SDS011;465;48.802;9.224;2022-07-06T12:56:57;7.33;;;3.40;;
956;SDS011;465;48.802;9.224;2022-07-06T12:59:25;3.97;;;3.20;;
956;SDS011;465;48.802;9.224;2022-07-06T13:01:52;5.53;;;3.63;;
956;SDS011;465;48.802;9.224;2022-07-06T13:04:21;6.43;;;3.60;;
956;SDS011;465;48.802;9.224;2022-07-06T13:06:48;5.67;;;3.27;;
956;SDS011;465;48.802;9.224;2022-07-06T13:09:15;5.10;;;2.93;;
956;SDS011;465;48.802;9.224;2022-07-06T13:11:43;3.57;;;2.93;;
956;SDS011;465;48.802;9.224;2022-07-06T13:14:12;3.47;;;2.73;;
956;SDS011;465;48.802;9.224;2022-07-06T13:16:39;5.17;;;2.90;;
956;SDS011;465;48.802;9.224;2022-07-06T13:19:05;3.70;;;3.00;;
956;SDS011;465;48.802;9.224;2022-07-06T13:21:32;4.83;;;3.47;;
956;SDS011;465;48.802;9.224;2022-07-06T13:23:59;4.80;;;2.90;;
956;SDS011;465;48.802;9.224;2022-07-06T13:26:26;3.13;;;2.83;;
956;SDS011;465;48.802;9.224;2022-07-06T13:28:52;4.73;;;2.40;;
956;SDS011;465;48.802;9.224;2022-07-06T13:31:20;3.23;;;2.93;;
956;SDS011;465;48.802;9.224;2022-07-06T13:33:47;5.03;;;2.60;;
956;SDS011;465;48.802;9.224;2022-07-06T13:36:14;5.93;;;3.10;;
956;SDS011;465;48.802;9.224;2022-07-06T13:38:41;3.67;;;3.33;;
956;SDS011;465;48.802;9.224;2022-07-06T13:41:07;4.03;;;3.30;;
956;SDS011;465;48.802;9.224;2022-07-06T13:43:34;4.30;;;2.70;;
956;SDS011;465;48.802;9.224;2022-07-06T13:46:02;4.17;;;2.90;;
956;SDS011;465;48.802;9.224;2022-07-06T13:48:31;3.87;;;3.10;;
956;SDS011;465;48.802;9.224;2022-07-06T13:50:58;3.20;;;2.87;;
956;SDS011;465;48.802;9.224;2022-07-06T13:53:25;7.23;;;3.60;;
956;SDS011;465;48.802;9.224;2022-07-06T13:55:52;4.60;;;2.90;;
956;SDS011;465;48.802;9.224;2022-07-06T13:58:19;4.67;;;3.13;;
956;SDS011;465;48.802;9.224;2022-07-06T14:00:46;4.80;;;3.20;;
956;SDS011;465;48.802;9.224;2022-07-06T14:03:13;5.47;;;3.30;;
956;SDS011;465;48.802;9.224;2022-07-06T14:05:41;5.30;;;3.20;;
956;SDS011;465;48.802;9.224;2022-07-06T14:08:08;2.60;;;2.30;;
956;SDS011;465;48.802;9.224;2022-07-06T14:10:34;4.80;;;3.17;;
956;SDS011;465;48.802;9.224;2022-07-06T14:13:01;2.73;;;2.30;;
956;SDS011;465;48.802;9.224;2022-07-06T14:15:28;3.97;;;2.63;;
956;SDS011;465;48.802;9.224;2022-07-06T14:17:55;3.30;;;2.60;;
956;SDS011;465;48.802;9.224;2022-07-06T14:20:21;4.23;;;2.77;;
956;SDS011;465;48.802;9.224;2022-07-06T14:22:49;4.40;;;3.20;;
956;SDS011;465;48.802;9.224;2022-07-06T14:25:16;4.33;;;2.60;;
956;SDS011;465;48.802;9.224;2022-07-06T14:27:43;6.13;;;2.70;;
956;SDS011;465;48.802;9.224;2022-07-06T14:30:10;7.10;;;3.03;;
956;SDS011;465;48.802;9.224;2022-07-06T14:32:37;2.93;;;1.93;;
956;SDS011;465;48.802;9.224;2022-07-06T14:35:04;6.43;;;3.20;;
956;SDS011;465;48.802;9.224;2022-07-06T14:37:31;3.20;;;2.90;;
956;SDS011;465;48.802;9.224;2022-07-06T14:39:59;4.97;;;2.80;;
956;SDS011;465;48.802;9.224;2022-07-06T14:42:25;3.33;;;2.43;;
956;SDS011;465;48.802;9.224;2022-07-06T14:44:52;3.33;;;2.83;;
956;SDS011;465;48.802;9.224;2022-07-06T14:47:19;3.20;;;2.60;;
956;SDS011;465;48.802;9.224;2022-07-06T14:49:46;2.33;;;2.07;;
956;SDS011;465;48.802;9.224;2022-07-06T14:52:12;5.73;;;2.80;;
956;SDS011;465;48.802;9.224;2022-07-06T14:54:39;3.50;;;3.20;;
956;SDS011;465;48.802;9.224;2022-07-06T14:57:09;3.00;;;2.65;;
956;SDS011;465;48.802;9.224;2022-07-06T14:59:36;4.70;;;2.70;;
956;SDS011;465;48.802;9.224;2022-07-06T15:02:04;3.73;;;2.90;;
956;SDS011;465;48.802;9.224;2022-07-06T15:04:31;4.47;;;3.43;;
956;SDS011;465;48.802;9.224;2022-07-06T15:06:58;3.73;;;2.83;;
956;SDS011;465;48.802;9.224;2022-07-06T15:09:25;3.77;;;2.43;;
956;SDS011;465;48.802;9.224;2022-07-06T15:11:53;2.70;;;2.50;;
956;SDS011;465;48.802;9.224;2022-07-06T15:14:21;3.40;;;2.50;;
956;SDS011;465;48.802;9.224;2022-07-06T15:16:49;4.10;;;2.90;;
956;SDS011;465;48.802;9.224;2022-07-06T15:19:17;4.17;;;2.70;;
956;SDS011;465;48.802;9.224;2022-07-06T15:21:44;3.47;;;2.60;;
956;SDS011;465;48.802;9.224;2022-07-06T15:24:11;3.90;;;2.50;;
956;SDS011;465;48.802;9.224;2022-07-06T15:26:37;3.80;;;3.27;;
956;SDS011;465;48.802;9.224;2022-07-06T15:29:04;3.67;;;3.17;;
956;SDS011;465;48.802;9.224;2022-07-06T15:31:32;2.60;;;2.40;;
956;SDS011;465;48.802;9.224;2022-07-06T15:33:59;3.60;;;2.70;;
956;SDS011;465;48.802;9.224;2022-07-06T15:36:25;3.70;;;2.67;;
956;SDS011;465;48.802;9.224;2022-07-06T15:38:52;2.90;;;2.60;;
956;SDS011;465;48.802;9.224;2022-07-06T15:41:19;3.73;;;3.00;;
956;SDS011;465;48.802;9.224;2022-07-06T15:43:45;4.53;;;2.60;;
956;SDS011;465;48.802;9.224;2022-07-06T15:46:12;3.60;;;3.10;;
956;SDS011;465;48.802;9.224;2022-07-06T15:48:40;5.17;;;4.67;;